Narathiwat, Thailand

4:46 AM ICT on September 01, 2016 (GMT +0700)
Sultan Ismail Petra | | Change Station

Elev 16 ft 6.17 °N, 102.29 °E | Updated 46 minutes ago

Mostly Cloudy
Mostly Cloudy
77 °F
Feels Like 77 °F
N
4
Wind Variable Wind from SSW

Today
High -- | Low -- °F
--% Chance of Precip.
Yesterday
High -- | Low -- °F
Precip. -- in
Pressure 29.83 in
Visibility 6.2 miles
Clouds Few 2000 ft
Scattered Clouds 14000 ft
Mostly Cloudy 28000 ft
Dew Point 73 °F
Humidity 89%
Rainfall 0.00 in
Snow Depth Not available.
6:05 AM 6:20 PM
Waning Crescent, 0% visible
METAR WMKC 312100Z 20003KT 9999 FEW020 SCT140 BKN280 25/23 Q1010
Pressure 29.83 in
Visibility 6.2 miles
Clouds Few 2000 ft
Scattered Clouds 14000 ft
Mostly Cloudy 28000 ft
Dew Point 73 °F
Humidity 89%
Rainfall 0.00 in
Snow Depth Not available.
6:05 AM 6:20 PM
Waning Crescent, 0% visible
METAR WMKC 312100Z 20003KT 9999 FEW020 SCT140 BKN280 25/23 Q1010

10-Day Weather Forecast

No radar image for this location.
×

Almanac

Astronomy

Sep. 01, 2016 Rise Set
Actual Time
Civil Twilight
Nautical Twilight
Astronomical Twilight
Moon
Length of Visible Light
Length of Day
Tomorrow will be .
, % of the Moon is Illuminated

Today's Extremes

Country Highs Country Lows

Community

WunderPhotos

Upload Photos

1,936,189 photos uploaded!

WunderBlog® & News

Nearby

Air Quality

  Air Quality AQ Index Pollutant
Not available.

Snow Depth

Station Depth Elevation

Earthquake Activity

City Distance Mag. Time & Date
Minimum magnitude displayed is 2.5.

Coastal Water Temperatures

Place Temperature

Stations

Nearby Weather Stations

Station Location Temp. Windchill Dew Point Humidity Wind Precip. Elev Updated Type